createdAt,value
2016-12-06T00:00:16.963Z,0
2016-12-06T00:01:16.939Z,0
2016-12-06T00:02:16.947Z,0
2016-12-06T00:03:16.960Z,0
2016-12-06T00:04:16.966Z,0
2016-12-06T00:05:16.984Z,0
2016-12-06T00:06:16.989Z,0
2016-12-06T00:07:17.005Z,0
2016-12-06T00:08:17.009Z,0
2016-12-06T00:09:17.012Z,0
2016-12-06T00:10:17.073Z,0
2016-12-06T00:11:17.033Z,0
2016-12-06T00:12:17.074Z,0
2016-12-06T00:13:17.046Z,0
2016-12-06T00:14:17.414Z,0
2016-12-06T00:15:17.081Z,0
2016-12-06T00:16:17.086Z,0
2016-12-06T00:17:17.091Z,0
2016-12-06T00:18:17.107Z,0
2016-12-06T00:19:17.110Z,0
2016-12-06T00:20:17.165Z,0
2016-12-06T00:21:17.139Z,0
2016-12-06T00:22:17.133Z,0
2016-12-06T00:23:17.139Z,0
2016-12-06T00:24:17.148Z,0
2016-12-06T00:25:17.151Z,0
2016-12-06T00:26:17.173Z,0
2016-12-06T00:27:17.176Z,0
2016-12-06T00:28:17.501Z,0
2016-12-06T00:29:17.194Z,0
2016-12-06T00:30:17.258Z,0
2016-12-06T00:31:17.224Z,0
2016-12-06T00:32:17.226Z,0
2016-12-06T00:33:17.240Z,0
2016-12-06T00:34:17.257Z,0
2016-12-06T00:35:17.308Z,0
2016-12-06T00:36:17.261Z,0
2016-12-06T00:37:17.301Z,0
2016-12-06T00:38:17.283Z,0
2016-12-06T00:39:17.341Z,0
2016-12-06T00:40:17.297Z,0
2016-12-06T00:41:17.304Z,0
2016-12-06T00:42:17.322Z,0
2016-12-06T00:43:17.327Z,0
2016-12-06T00:44:17.332Z,0
2016-12-06T00:45:17.396Z,0
2016-12-06T00:46:17.363Z,0
2016-12-06T00:47:17.369Z,0
2016-12-06T00:48:17.372Z,0
2016-12-06T00:49:17.384Z,0
2016-12-06T00:50:17.385Z,0
2016-12-06T00:51:17.393Z,0
2016-12-06T00:52:17.414Z,0
2016-12-06T00:53:17.418Z,0
2016-12-06T00:54:17.432Z,0
2016-12-06T00:55:17.487Z,0
2016-12-06T00:56:17.443Z,0
2016-12-06T00:57:17.462Z,0
2016-12-06T00:58:17.462Z,0
2016-12-06T00:59:17.483Z,0
2016-12-06T01:00:17.485Z,0
2016-12-06T01:01:17.496Z,0
2016-12-06T01:02:17.517Z,0
2016-12-06T01:03:17.501Z,0
2016-12-06T01:04:17.516Z,0
2016-12-06T01:05:17.579Z,0
2016-12-06T01:06:17.535Z,0
2016-12-06T01:07:17.547Z,0
2016-12-06T01:08:17.564Z,0
2016-12-06T01:09:17.565Z,0
2016-12-06T01:10:17.583Z,0
2016-12-06T01:11:17.586Z,0
2016-12-06T01:12:17.584Z,0
2016-12-06T01:13:17.604Z,0
2016-12-06T01:14:17.610Z,0
2016-12-06T01:15:17.674Z,0
2016-12-06T01:16:17.633Z,0
2016-12-06T01:17:17.638Z,0
2016-12-06T01:18:17.652Z,0
2016-12-06T01:19:17.670Z,0
2016-12-06T01:20:17.676Z,0
2016-12-06T01:21:17.674Z,0
2016-12-06T01:22:17.688Z,0
2016-12-06T01:23:17.690Z,0
2016-12-06T01:24:17.710Z,0
2016-12-06T01:25:17.772Z,0
2016-12-06T01:26:17.734Z,0
2016-12-06T01:27:17.728Z,0
2016-12-06T01:28:17.738Z,0
2016-12-06T01:29:17.752Z,0
2016-12-06T01:30:17.756Z,0
2016-12-06T01:31:17.765Z,0
2016-12-06T01:32:17.771Z,0
2016-12-06T01:33:17.792Z,0
2016-12-06T01:34:17.797Z,0
2016-12-06T01:35:17.854Z,0
2016-12-06T01:36:17.817Z,0
2016-12-06T01:37:17.829Z,0
2016-12-06T01:38:17.836Z,0
2016-12-06T01:39:17.875Z,0
2016-12-06T01:40:17.849Z,0
2016-12-06T01:41:17.855Z,0
2016-12-06T01:42:17.860Z,0
2016-12-06T01:43:17.879Z,0
2016-12-06T01:44:17.893Z,0
2016-12-06T01:45:17.945Z,0
2016-12-06T01:46:17.907Z,0
2016-12-06T01:47:17.911Z,0
2016-12-06T01:48:17.952Z,0
2016-12-06T01:49:17.925Z,0
2016-12-06T01:50:17.927Z,0
2016-12-06T01:51:17.935Z,0
2016-12-06T01:52:17.955Z,0
2016-12-06T01:53:17.960Z,0
2016-12-06T01:54:17.973Z,0
2016-12-06T01:55:18.031Z,0
2016-12-06T01:56:17.983Z,0
2016-12-06T01:57:17.990Z,0
2016-12-06T01:58:17.998Z,0
2016-12-06T01:59:18.006Z,0
2016-12-06T02:00:18.023Z,0
2016-12-06T02:01:18.033Z,0
2016-12-06T02:02:18.049Z,0
2016-12-06T02:03:18.053Z,0
2016-12-06T02:04:18.059Z,0
2016-12-06T02:05:18.120Z,0
2016-12-06T02:06:18.110Z,0
2016-12-06T02:07:18.091Z,0
2016-12-06T02:08:18.102Z,0
2016-12-06T02:09:18.106Z,0
2016-12-06T02:10:18.147Z,0
2016-12-06T02:11:18.126Z,0
2016-12-06T02:12:18.133Z,0
2016-12-06T02:13:18.140Z,0
2016-12-06T02:14:18.157Z,0
2016-12-06T02:15:18.215Z,0
2016-12-06T02:16:18.178Z,0
2016-12-06T02:17:18.176Z,0
2016-12-06T02:18:18.193Z,0
2016-12-06T02:19:18.201Z,0
2016-12-06T02:20:18.212Z,0
2016-12-06T02:21:18.221Z,0
2016-12-06T02:22:18.217Z,0
2016-12-06T02:23:18.226Z,0
2016-12-06T02:24:18.243Z,0
2016-12-06T02:25:18.295Z,0
2016-12-06T02:26:18.265Z,0
2016-12-06T02:27:18.271Z,0
2016-12-06T02:28:18.281Z,0
2016-12-06T02:29:18.285Z,0
2016-12-06T02:30:18.300Z,0
2016-12-06T02:31:18.307Z,0
2016-12-06T02:32:18.306Z,0
2016-12-06T02:33:18.318Z,0
2016-12-06T02:34:18.321Z,0
2016-12-06T02:35:18.392Z,0
2016-12-06T02:36:18.348Z,0
2016-12-06T02:37:18.365Z,0
2016-12-06T02:38:18.371Z,0
2016-12-06T02:39:18.373Z,0
2016-12-06T02:40:18.388Z,0
2016-12-06T02:41:18.396Z,0
2016-12-06T02:42:18.396Z,0
2016-12-06T02:43:18.402Z,0
2016-12-06T02:44:18.414Z,0
2016-12-06T02:45:18.476Z,0
2016-12-06T02:46:18.435Z,0
2016-12-06T02:47:18.440Z,0
2016-12-06T02:48:18.461Z,0
2016-12-06T02:49:18.470Z,0
2016-12-06T02:50:18.516Z,0
2016-12-06T02:51:18.487Z,0
2016-12-06T02:52:18.507Z,0
2016-12-06T02:53:18.522Z,0
2016-12-06T02:54:18.509Z,0
2016-12-06T02:55:18.581Z,0
2016-12-06T02:56:18.527Z,0
2016-12-06T02:57:18.531Z,0
2016-12-06T02:58:18.549Z,0
2016-12-06T02:59:18.555Z,0
2016-12-06T03:00:18.584Z,0
2016-12-06T03:01:18.894Z,0
2016-12-06T03:02:18.587Z,0
2016-12-06T03:03:18.605Z,0
2016-12-06T03:04:18.597Z,0
2016-12-06T03:05:18.668Z,0
2016-12-06T03:06:18.620Z,0
2016-12-06T03:07:18.626Z,0
2016-12-06T03:08:18.631Z,0
2016-12-06T03:09:18.655Z,0
2016-12-06T03:10:18.666Z,0
2016-12-06T03:11:18.699Z,0
2016-12-06T03:12:18.673Z,0
2016-12-06T03:13:18.695Z,0
2016-12-06T03:14:18.692Z,0
2016-12-06T03:15:18.759Z,0
2016-12-06T03:16:18.708Z,0
2016-12-06T03:17:18.717Z,0
2016-12-06T03:18:18.734Z,0
2016-12-06T03:19:18.741Z,0
2016-12-06T03:20:18.743Z,0
2016-12-06T03:21:18.758Z,0
2016-12-06T03:22:18.766Z,0
2016-12-06T03:23:18.808Z,0
2016-12-06T03:24:18.782Z,0
2016-12-06T03:25:18.848Z,0
2016-12-06T03:26:18.796Z,0
2016-12-06T03:27:18.806Z,0
2016-12-06T03:28:18.811Z,0
2016-12-06T03:29:18.830Z,0
2016-12-06T03:30:19.149Z,0
2016-12-06T03:31:18.849Z,0
2016-12-06T03:32:18.849Z,0
2016-12-06T03:33:18.864Z,0
2016-12-06T03:34:18.877Z,0
2016-12-06T03:35:18.886Z,0
2016-12-06T03:36:18.882Z,0
2016-12-06T03:37:18.893Z,0
2016-12-06T03:38:18.900Z,0
2016-12-06T03:39:18.935Z,0
2016-12-06T03:40:18.968Z,0
2016-12-06T03:41:18.941Z,0
2016-12-06T03:42:18.938Z,0
2016-12-06T03:43:18.945Z,0
2016-12-06T03:44:19.269Z,0
2016-12-06T03:45:18.969Z,0
2016-12-06T03:46:18.984Z,0
2016-12-06T03:47:18.984Z,0
2016-12-06T03:48:18.994Z,0
2016-12-06T03:49:19.006Z,0
2016-12-06T03:50:19.075Z,0
2016-12-06T03:51:19.016Z,0
2016-12-06T03:52:19.030Z,0
2016-12-06T03:53:19.042Z,0
2016-12-06T03:54:19.044Z,0
2016-12-06T03:55:19.086Z,0
2016-12-06T03:56:19.064Z,0
2016-12-06T03:57:19.083Z,0
2016-12-06T03:58:19.082Z,0
2016-12-06T03:59:19.099Z,0
2016-12-06T04:00:19.151Z,0
2016-12-06T04:01:19.108Z,0
2016-12-06T04:02:19.113Z,0
2016-12-06T04:03:19.120Z,0
2016-12-06T04:04:19.138Z,0
2016-12-06T04:05:19.145Z,0
2016-12-06T04:06:19.145Z,0
2016-12-06T04:07:19.487Z,0
2016-12-06T04:08:19.175Z,0
2016-12-06T04:09:19.181Z,0
2016-12-06T04:10:19.247Z,0
2016-12-06T04:11:19.198Z,0
2016-12-06T04:12:19.208Z,0
2016-12-06T04:13:19.219Z,0
2016-12-06T04:14:19.217Z,0
2016-12-06T04:15:19.231Z,0
2016-12-06T04:16:19.245Z,0
2016-12-06T04:17:19.254Z,0
2016-12-06T04:18:19.261Z,0
2016-12-06T04:19:19.269Z,0
2016-12-06T04:20:19.331Z,0
2016-12-06T04:21:19.294Z,0
2016-12-06T04:22:19.294Z,0
2016-12-06T04:23:19.304Z,0
2016-12-06T04:24:19.318Z,0
2016-12-06T04:25:19.322Z,0
2016-12-06T04:26:19.335Z,0
2016-12-06T04:27:19.341Z,0
2016-12-06T04:28:19.339Z,0
2016-12-06T04:29:19.355Z,0
2016-12-06T04:30:19.424Z,0
2016-12-06T04:31:19.371Z,0
2016-12-06T04:32:19.384Z,0
2016-12-06T04:33:19.402Z,0
2016-12-06T04:34:19.398Z,0
2016-12-06T04:35:19.418Z,0
2016-12-06T04:36:19.416Z,0
2016-12-06T04:37:19.416Z,0
2016-12-06T04:38:19.440Z,0
2016-12-06T04:39:19.448Z,0
2016-12-06T04:40:19.827Z,0
2016-12-06T04:41:19.463Z,0
2016-12-06T04:42:19.514Z,0
2016-12-06T04:43:19.482Z,0
2016-12-06T04:44:19.482Z,0
2016-12-06T04:45:19.489Z,0
2016-12-06T04:46:19.497Z,0
2016-12-06T04:47:19.510Z,0
2016-12-06T04:48:19.840Z,0
2016-12-06T04:49:19.536Z,0
2016-12-06T04:50:19.593Z,0
2016-12-06T04:51:19.554Z,0
2016-12-06T04:52:19.564Z,0
2016-12-06T04:53:19.570Z,0
2016-12-06T04:54:19.582Z,0
2016-12-06T04:55:19.589Z,0
2016-12-06T04:56:19.596Z,0
2016-12-06T04:57:19.604Z,0
2016-12-06T04:58:19.943Z,0
2016-12-06T04:59:19.625Z,0
2016-12-06T05:00:19.684Z,0
2016-12-06T05:01:19.640Z,0
2016-12-06T05:02:19.646Z,0
2016-12-06T05:03:19.660Z,0
2016-12-06T05:04:19.670Z,0
2016-12-06T05:05:19.673Z,0
2016-12-06T05:06:19.686Z,0
2016-12-06T05:07:19.709Z,0
2016-12-06T05:08:19.699Z,0
2016-12-06T05:09:19.713Z,0
2016-12-06T05:10:19.772Z,0
2016-12-06T05:11:19.724Z,0
2016-12-06T05:12:19.732Z,0
2016-12-06T05:13:19.738Z,0
2016-12-06T05:14:19.758Z,0
2016-12-06T05:15:19.763Z,0
2016-12-06T05:16:19.773Z,0
2016-12-06T05:17:19.784Z,0
2016-12-06T05:18:19.789Z,0
2016-12-06T05:19:19.799Z,0
2016-12-06T05:20:19.855Z,0
2016-12-06T05:21:19.811Z,0
2016-12-06T05:22:19.830Z,0
2016-12-06T05:23:19.831Z,0
2016-12-06T05:24:19.841Z,0
2016-12-06T05:25:19.849Z,0
2016-12-06T05:26:19.855Z,0
2016-12-06T05:27:19.862Z,0
2016-12-06T05:28:19.886Z,0
2016-12-06T05:29:19.882Z,0
2016-12-06T05:30:19.957Z,0
2016-12-06T05:31:19.906Z,0
2016-12-06T05:32:19.934Z,0
2016-12-06T05:33:19.930Z,0
2016-12-06T05:34:19.929Z,0
2016-12-06T05:35:20.262Z,0
2016-12-06T05:36:19.952Z,0
2016-12-06T05:37:19.983Z,0
2016-12-06T05:38:19.961Z,0
2016-12-06T05:39:19.963Z,0
2016-12-06T05:40:20.040Z,0
2016-12-06T05:41:20.001Z,0
2016-12-06T05:42:20.004Z,0
2016-12-06T05:43:20.014Z,0
2016-12-06T05:44:20.024Z,0
2016-12-06T05:45:20.042Z,0
2016-12-06T05:46:20.047Z,0
2016-12-06T05:47:20.362Z,0
2016-12-06T05:48:20.059Z,0
2016-12-06T05:49:20.060Z,0
2016-12-06T05:50:20.134Z,0
2016-12-06T05:51:20.081Z,0
2016-12-06T05:52:20.117Z,0
2016-12-06T05:53:20.091Z,0
2016-12-06T05:54:20.113Z,0
2016-12-06T05:55:20.118Z,0
2016-12-06T05:56:20.130Z,0
2016-12-06T05:57:20.145Z,0
2016-12-06T05:58:20.151Z,0
2016-12-06T05:59:20.150Z,0
2016-12-06T06:00:20.208Z,0
2016-12-06T06:01:20.162Z,0
2016-12-06T06:02:20.174Z,0
2016-12-06T06:03:20.189Z,0
2016-12-06T06:04:20.199Z,0
2016-12-06T06:05:20.205Z,0
2016-12-06T06:06:20.220Z,0
2016-12-06T06:07:20.233Z,0
2016-12-06T06:08:20.238Z,0
2016-12-06T06:09:20.242Z,0
2016-12-06T06:10:20.304Z,0
2016-12-06T06:11:20.258Z,0
2016-12-06T06:12:20.262Z,0
2016-12-06T06:13:20.282Z,0
2016-12-06T06:14:20.403Z,4
2016-12-06T06:15:20.358Z,4
2016-12-06T06:16:20.414Z,4
2016-12-06T06:17:20.310Z,0
2016-12-06T06:18:20.319Z,0
2016-12-06T06:19:20.327Z,0
2016-12-06T06:20:20.347Z,0
2016-12-06T06:21:20.353Z,0
2016-12-06T06:22:20.348Z,0
2016-12-06T06:23:20.474Z,0
2016-12-06T06:24:20.368Z,0
2016-12-06T06:25:20.376Z,0
2016-12-06T06:26:20.396Z,0
2016-12-06T06:27:20.399Z,0
2016-12-06T06:28:20.405Z,0
2016-12-06T06:29:20.427Z,0
2016-12-06T06:30:20.418Z,0
2016-12-06T06:31:20.433Z,0
2016-12-06T06:32:20.561Z,0
2016-12-06T06:33:20.455Z,0
2016-12-06T06:34:20.461Z,0
2016-12-06T06:35:20.466Z,0
2016-12-06T06:36:20.481Z,0
2016-12-06T06:37:20.814Z,4
2016-12-06T06:38:20.502Z,4
2016-12-06T06:39:20.507Z,4
2016-12-06T06:40:20.517Z,0
2016-12-06T06:41:20.522Z,4
2016-12-06T06:42:20.528Z,4
2016-12-06T06:43:20.534Z,4
2016-12-06T06:44:20.549Z,4
2016-12-06T06:45:20.557Z,4
2016-12-06T06:46:20.571Z,4
2016-12-06T06:47:20.582Z,8
2016-12-06T06:48:20.900Z,4
2016-12-06T06:49:20.588Z,8
2016-12-06T06:50:20.599Z,8
2016-12-06T06:51:20.621Z,12
2016-12-06T06:52:20.626Z,12
2016-12-06T06:53:20.638Z,12
2016-12-06T06:54:20.648Z,16
2016-12-06T06:55:20.642Z,16
2016-12-06T06:56:20.673Z,16
2016-12-06T06:57:20.983Z,16
2016-12-06T06:58:20.680Z,24
2016-12-06T06:59:20.683Z,24
2016-12-06T07:00:20.716Z,24
2016-12-06T07:01:20.708Z,28
2016-12-06T07:02:20.716Z,32
2016-12-06T07:03:20.729Z,32
2016-12-06T07:04:20.733Z,36
2016-12-06T07:05:20.740Z,36
2016-12-06T07:06:20.753Z,36
2016-12-06T07:07:20.756Z,40
2016-12-06T07:08:20.796Z,44
2016-12-06T07:09:20.761Z,48
2016-12-06T07:10:20.787Z,48
2016-12-06T07:11:20.792Z,52
2016-12-06T07:12:20.804Z,56
2016-12-06T07:13:20.820Z,60
2016-12-06T07:14:20.818Z,60
2016-12-06T07:15:20.821Z,64
2016-12-06T07:16:20.834Z,68
2016-12-06T07:17:20.840Z,68
2016-12-06T07:18:20.862Z,76
2016-12-06T07:19:21.183Z,76
2016-12-06T07:20:20.868Z,80
2016-12-06T07:21:21.199Z,84
2016-12-06T07:22:20.894Z,92
2016-12-06T07:23:20.900Z,84
2016-12-06T07:24:20.910Z,92
2016-12-06T07:25:20.910Z,100
2016-12-06T07:26:20.921Z,100
2016-12-06T07:27:21.249Z,96
2016-12-06T07:28:20.942Z,92
2016-12-06T07:29:20.961Z,96
2016-12-06T07:30:20.975Z,96
2016-12-06T07:31:20.969Z,100
2016-12-06T07:32:20.983Z,108
2016-12-06T07:33:20.990Z,108
2016-12-06T07:34:20.994Z,112
2016-12-06T07:35:21.004Z,116
2016-12-06T07:36:21.015Z,120
2016-12-06T07:37:21.020Z,120
2016-12-06T07:38:21.038Z,124
2016-12-06T07:39:21.042Z,124
2016-12-06T07:40:21.064Z,128
2016-12-06T07:41:21.067Z,128
2016-12-06T07:42:21.076Z,136
2016-12-06T07:43:21.082Z,132
2016-12-06T07:44:21.087Z,140
2016-12-06T07:45:21.090Z,140
2016-12-06T07:46:21.112Z,144
2016-12-06T07:47:21.114Z,148
2016-12-06T07:48:21.124Z,148
2016-12-06T07:49:21.136Z,152
2016-12-06T07:50:21.157Z,148
2016-12-06T07:51:21.151Z,152
2016-12-06T07:52:21.153Z,156
2016-12-06T07:53:21.480Z,160
2016-12-06T07:54:21.168Z,160
2016-12-06T07:55:21.188Z,160
2016-12-06T07:56:21.201Z,164
2016-12-06T07:57:21.209Z,168
2016-12-06T07:58:21.214Z,168
2016-12-06T07:59:21.248Z,172
2016-12-06T08:00:21.240Z,172
2016-12-06T08:01:21.247Z,180
2016-12-06T08:02:21.257Z,184
2016-12-06T08:03:21.263Z,188
2016-12-06T08:04:21.260Z,188
2016-12-06T08:05:21.611Z,188
2016-12-06T08:06:21.278Z,188
2016-12-06T08:07:21.287Z,192
2016-12-06T08:08:21.311Z,192
2016-12-06T08:09:21.311Z,192
2016-12-06T08:10:21.327Z,196
2016-12-06T08:11:21.340Z,216
2016-12-06T08:12:21.332Z,232
2016-12-06T08:13:21.361Z,248
2016-12-06T08:14:21.359Z,248
2016-12-06T08:15:21.359Z,240
2016-12-06T08:16:21.380Z,244
2016-12-06T08:17:21.388Z,248
2016-12-06T08:18:21.387Z,252
2016-12-06T08:19:21.408Z,260
2016-12-06T08:20:21.419Z,288
2016-12-06T08:21:21.419Z,292
2016-12-06T08:22:21.424Z,276
2016-12-06T08:23:21.448Z,264
2016-12-06T08:24:21.451Z,264
2016-12-06T08:25:21.453Z,284
2016-12-06T08:26:21.459Z,284
2016-12-06T08:27:21.480Z,296
2016-12-06T08:28:21.490Z,280
2016-12-06T08:29:21.502Z,264
2016-12-06T08:30:21.508Z,268
2016-12-06T08:31:21.553Z,272
2016-12-06T08:32:21.525Z,280
2016-12-06T08:33:21.539Z,280
2016-12-06T08:34:21.537Z,296
2016-12-06T08:35:21.555Z,296
2016-12-06T08:36:21.876Z,308
2016-12-06T08:37:21.568Z,308
2016-12-06T08:38:21.575Z,292
2016-12-06T08:39:21.593Z,292
2016-12-06T08:40:21.609Z,292
2016-12-06T08:41:21.604Z,300
2016-12-06T08:42:21.617Z,304
2016-12-06T08:43:21.628Z,300
2016-12-06T08:44:21.634Z,296
2016-12-06T08:45:21.632Z,280
2016-12-06T08:46:21.658Z,268
2016-12-06T08:47:21.664Z,268
2016-12-06T08:48:21.681Z,256
2016-12-06T08:49:21.680Z,244
2016-12-06T08:50:21.689Z,256
2016-12-06T08:51:21.700Z,260
2016-12-06T08:52:21.713Z,224
2016-12-06T08:53:21.722Z,212
2016-12-06T08:54:22.039Z,220
2016-12-06T08:55:21.725Z,228
2016-12-06T08:56:21.745Z,236
2016-12-06T08:57:21.743Z,244
2016-12-06T08:58:21.767Z,244
2016-12-06T08:59:21.783Z,244
2016-12-06T09:00:21.787Z,260
2016-12-06T09:01:21.796Z,272
2016-12-06T09:02:21.799Z,280
2016-12-06T09:03:21.807Z,268
2016-12-06T09:04:21.818Z,256
2016-12-06T09:05:21.828Z,284
2016-12-06T09:06:21.837Z,320
2016-12-06T09:07:21.841Z,352
2016-12-06T09:08:21.862Z,360
2016-12-06T09:09:22.060Z,368
2016-12-06T09:10:21.988Z,372
2016-12-06T09:11:22.002Z,376
2016-12-06T09:12:21.897Z,380
2016-12-06T09:13:21.913Z,388
2016-12-06T09:14:21.922Z,368
2016-12-06T09:15:21.917Z,332
2016-12-06T09:16:21.933Z,296
2016-12-06T09:17:21.975Z,276
2016-12-06T09:18:21.949Z,264
2016-12-06T09:19:22.074Z,264
2016-12-06T09:20:22.282Z,268
2016-12-06T09:21:21.971Z,260
2016-12-06T09:22:22.003Z,264
2016-12-06T09:23:21.992Z,252
2016-12-06T09:24:22.118Z,252
2016-12-06T09:25:22.011Z,248
2016-12-06T09:26:22.138Z,248
2016-12-06T09:27:22.040Z,252
2016-12-06T09:28:22.038Z,252
2016-12-06T09:29:22.475Z,256
2016-12-06T09:30:22.180Z,264
2016-12-06T09:31:22.069Z,272
2016-12-06T09:32:22.068Z,272
2016-12-06T09:33:22.086Z,276
2016-12-06T09:34:22.184Z,276
2016-12-06T09:35:22.118Z,276
2016-12-06T09:36:22.122Z,276
2016-12-06T09:37:22.202Z,276
2016-12-06T09:38:22.137Z,276
2016-12-06T09:39:22.144Z,280
2016-12-06T09:40:22.159Z,280
2016-12-06T09:41:22.283Z,276
2016-12-06T09:42:22.178Z,276
2016-12-06T09:43:22.184Z,276
2016-12-06T09:44:22.192Z,276
2016-12-06T09:45:22.327Z,276
2016-12-06T09:46:22.204Z,280
2016-12-06T09:47:22.219Z,280
2016-12-06T09:48:22.232Z,280
2016-12-06T09:49:22.254Z,284
2016-12-06T09:50:22.241Z,284
2016-12-06T09:51:22.251Z,284
2016-12-06T09:52:22.266Z,284
2016-12-06T09:53:22.286Z,284
2016-12-06T09:54:22.284Z,284
2016-12-06T09:55:22.301Z,284
2016-12-06T09:56:22.301Z,284
2016-12-06T09:57:22.321Z,288
2016-12-06T09:58:22.326Z,292
2016-12-06T09:59:22.332Z,292
2016-12-06T10:00:22.338Z,292
2016-12-06T10:01:22.353Z,296
2016-12-06T10:02:22.375Z,300
2016-12-06T10:03:22.385Z,300
2016-12-06T10:04:22.392Z,304
2016-12-06T10:05:22.387Z,304
2016-12-06T10:06:22.393Z,308
2016-12-06T10:07:22.409Z,312
2016-12-06T10:08:22.423Z,324
2016-12-06T10:09:22.430Z,336
2016-12-06T10:10:22.677Z,340
2016-12-06T10:11:22.616Z,360
2016-12-06T10:12:22.451Z,368
2016-12-06T10:13:22.586Z,388
2016-12-06T10:14:22.476Z,416
2016-12-06T10:15:22.501Z,432
2016-12-06T10:16:22.805Z,436
2016-12-06T10:17:22.512Z,432
2016-12-06T10:18:22.622Z,440
2016-12-06T10:19:22.524Z,460
2016-12-06T10:20:22.537Z,456
2016-12-06T10:21:22.542Z,480
2016-12-06T10:22:22.558Z,524
2016-12-06T10:23:22.561Z,576
2016-12-06T10:24:22.580Z,628
2016-12-06T10:25:22.578Z,640
2016-12-06T10:26:22.587Z,648
2016-12-06T10:27:22.617Z,652
2016-12-06T10:28:22.622Z,644
2016-12-06T10:29:22.638Z,676
2016-12-06T10:30:22.954Z,732
2016-12-06T10:31:22.636Z,784
2016-12-06T10:32:22.650Z,836
2016-12-06T10:33:22.659Z,888
2016-12-06T10:34:22.681Z,912
2016-12-06T10:35:22.688Z,932
2016-12-06T10:36:22.683Z,876
2016-12-06T10:37:22.703Z,856
2016-12-06T10:38:22.826Z,892
2016-12-06T10:39:22.879Z,908
2016-12-06T10:40:22.880Z,936
2016-12-06T10:41:22.896Z,896
2016-12-06T10:42:23.302Z,868
2016-12-06T10:43:22.749Z,952
2016-12-06T10:44:23.247Z,912
2016-12-06T10:45:22.864Z,900
2016-12-06T10:46:22.797Z,928
2016-12-06T10:47:23.244Z,936
2016-12-06T10:48:22.899Z,940
2016-12-06T10:49:22.927Z,924
2016-12-06T10:50:22.827Z,904
2016-12-06T10:51:22.830Z,904
2016-12-06T10:52:22.840Z,904
2016-12-06T10:53:22.879Z,940
2016-12-06T10:54:22.859Z,940
2016-12-06T10:55:22.867Z,932
2016-12-06T10:56:22.871Z,944
2016-12-06T10:57:22.885Z,932
2016-12-06T10:58:22.893Z,912
2016-12-06T10:59:22.909Z,888
2016-12-06T11:00:22.914Z,848
2016-12-06T11:01:22.925Z,816
2016-12-06T11:02:22.944Z,884
2016-12-06T11:03:22.946Z,944
2016-12-06T11:04:22.955Z,944
2016-12-06T11:05:22.966Z,956
2016-12-06T11:06:22.981Z,964
2016-12-06T11:07:23.192Z,924
2016-12-06T11:09:08.472Z,932
2016-12-06T11:09:23.188Z,936
2016-12-06T11:10:23.098Z,936
2016-12-06T11:11:23.030Z,880
2016-12-06T11:12:23.043Z,792
2016-12-06T11:13:23.050Z,792
2016-12-06T11:14:23.059Z,832
2016-12-06T11:15:23.188Z,840
2016-12-06T11:16:23.201Z,844
2016-12-06T11:17:23.659Z,836
2016-12-06T11:18:23.102Z,852
2016-12-06T11:19:23.113Z,916
2016-12-06T11:20:23.131Z,916
2016-12-06T11:21:23.129Z,856
2016-12-06T11:22:23.142Z,852
2016-12-06T11:23:23.227Z,884
2016-12-06T11:24:23.164Z,884
2016-12-06T11:25:23.173Z,908
2016-12-06T11:26:23.188Z,912
2016-12-06T11:27:23.194Z,888
2016-12-06T11:28:23.200Z,860
2016-12-06T11:29:23.218Z,832
2016-12-06T11:30:23.220Z,820
2016-12-06T11:31:23.231Z,828
2016-12-06T11:32:23.243Z,860
2016-12-06T11:33:23.261Z,868
2016-12-06T11:34:23.265Z,888
2016-12-06T11:35:23.288Z,928
2016-12-06T11:36:23.287Z,924
2016-12-06T11:37:23.295Z,904
2016-12-06T11:38:23.306Z,916
2016-12-06T11:39:23.392Z,928
2016-12-06T11:40:23.441Z,896
2016-12-06T11:41:23.427Z,860
2016-12-06T11:42:23.464Z,860
2016-12-06T11:43:23.442Z,892
2016-12-06T11:44:23.479Z,920
2016-12-06T11:45:23.498Z,932
2016-12-06T11:46:23.493Z,912
2016-12-06T11:47:23.512Z,888
2016-12-06T11:48:23.618Z,888
2016-12-06T11:49:23.697Z,892
2016-12-06T11:50:23.544Z,892
2016-12-06T11:51:23.586Z,896
2016-12-06T11:52:23.568Z,880
2016-12-06T11:53:23.792Z,868
2016-12-06T11:54:23.606Z,872
2016-12-06T11:55:23.611Z,868
2016-12-06T11:56:23.619Z,868
2016-12-06T11:57:23.595Z,868
2016-12-06T11:58:23.763Z,864
2016-12-06T11:59:23.631Z,836
2016-12-06T12:00:23.536Z,824
2016-12-06T12:01:23.546Z,836
2016-12-06T12:02:23.559Z,852
2016-12-06T12:03:23.570Z,884
2016-12-06T12:04:23.576Z,892
2016-12-06T12:05:23.631Z,888
2016-12-06T12:06:23.597Z,880
2016-12-06T12:07:23.609Z,876
2016-12-06T12:08:23.623Z,860
2016-12-06T12:09:23.629Z,844
2016-12-06T12:10:23.636Z,840
2016-12-06T12:11:23.655Z,836
2016-12-06T12:12:23.664Z,832
2016-12-06T12:13:23.672Z,832
2016-12-06T12:14:23.690Z,832
2016-12-06T12:15:23.699Z,824
2016-12-06T12:16:23.700Z,804
2016-12-06T12:17:23.721Z,792
2016-12-06T12:18:23.726Z,812
2016-12-06T12:19:24.051Z,840
2016-12-06T12:20:23.746Z,836
2016-12-06T12:21:23.759Z,820
2016-12-06T12:22:23.769Z,824
2016-12-06T12:23:23.951Z,828
2016-12-06T12:24:23.808Z,808
2016-12-06T12:25:23.812Z,792
2016-12-06T12:26:23.814Z,780
2016-12-06T12:27:23.823Z,772
2016-12-06T12:28:23.874Z,780
2016-12-06T12:29:23.844Z,784
2016-12-06T12:30:23.858Z,788
2016-12-06T12:31:23.869Z,796
2016-12-06T12:32:23.881Z,788
2016-12-06T12:33:23.893Z,788
2016-12-06T12:34:24.223Z,788
2016-12-06T12:35:23.911Z,776
2016-12-06T12:36:23.924Z,768
2016-12-06T12:37:23.936Z,728
2016-12-06T12:38:24.077Z,704
2016-12-06T12:39:23.950Z,696
2016-12-06T12:40:23.987Z,716
2016-12-06T12:41:23.975Z,732
2016-12-06T12:42:23.984Z,740
2016-12-06T12:43:23.992Z,704
2016-12-06T12:44:24.006Z,688
2016-12-06T12:45:24.018Z,696
2016-12-06T12:46:24.029Z,692
2016-12-06T12:47:24.039Z,688
2016-12-06T12:48:24.047Z,688
2016-12-06T12:49:24.062Z,672
2016-12-06T12:50:24.077Z,664
2016-12-06T12:51:24.080Z,688
2016-12-06T12:52:24.090Z,708
2016-12-06T12:53:24.213Z,688
2016-12-06T12:54:24.113Z,636
2016-12-06T12:55:24.124Z,612
2016-12-06T12:56:24.139Z,628
2016-12-06T12:57:24.144Z,636
2016-12-06T12:58:24.155Z,636
2016-12-06T12:59:24.167Z,640
2016-12-06T13:00:24.180Z,632
2016-12-06T13:01:24.194Z,632
2016-12-06T13:02:24.318Z,616
2016-12-06T13:03:24.322Z,616
2016-12-06T13:04:24.337Z,616
2016-12-06T13:05:24.261Z,604
2016-12-06T13:06:24.244Z,592
2016-12-06T13:07:24.255Z,584
2016-12-06T13:08:24.636Z,588
2016-12-06T13:09:24.424Z,592
2016-12-06T13:10:24.287Z,588
2016-12-06T13:11:24.390Z,588
2016-12-06T13:12:24.424Z,592
2016-12-06T13:13:24.734Z,596
2016-12-06T13:14:24.331Z,600
2016-12-06T13:15:24.346Z,600
2016-12-06T13:16:24.775Z,592
2016-12-06T13:17:24.408Z,596
2016-12-06T13:18:24.776Z,588
2016-12-06T13:19:24.379Z,572
2016-12-06T13:20:24.401Z,564
2016-12-06T13:21:24.410Z,560
2016-12-06T13:22:24.410Z,552
2016-12-06T13:23:24.423Z,544
2016-12-06T13:24:24.451Z,536
2016-12-06T13:25:24.446Z,524
2016-12-06T13:26:24.777Z,516
2016-12-06T13:27:24.470Z,520
2016-12-06T13:28:24.482Z,528
2016-12-06T13:29:24.490Z,516
2016-12-06T13:30:24.500Z,504
2016-12-06T13:31:24.514Z,492
2016-12-06T13:32:24.539Z,480
2016-12-06T13:33:24.532Z,476
2016-12-06T13:34:24.560Z,472
2016-12-06T13:35:24.557Z,476
2016-12-06T13:36:24.582Z,488
2016-12-06T13:37:24.598Z,488
2016-12-06T13:38:24.592Z,496
2016-12-06T13:39:24.917Z,488
2016-12-06T13:40:24.611Z,468
2016-12-06T13:41:24.622Z,452
2016-12-06T13:42:24.745Z,436
2016-12-06T13:43:24.642Z,432
2016-12-06T13:44:24.652Z,436
2016-12-06T13:45:24.670Z,444
2016-12-06T13:46:24.739Z,432
2016-12-06T13:47:24.688Z,408
2016-12-06T13:48:24.704Z,388
2016-12-06T13:49:24.718Z,376
2016-12-06T13:50:24.726Z,376
2016-12-06T13:51:24.732Z,368
2016-12-06T13:52:24.742Z,360
2016-12-06T13:53:24.755Z,352
2016-12-06T13:54:24.767Z,340
2016-12-06T13:55:24.908Z,324
2016-12-06T13:56:24.787Z,320
2016-12-06T13:57:24.801Z,324
2016-12-06T13:58:25.112Z,328
2016-12-06T13:59:24.873Z,328
2016-12-06T14:00:25.018Z,324
2016-12-06T14:01:25.083Z,320
2016-12-06T14:02:24.962Z,316
2016-12-06T14:03:24.862Z,320
2016-12-06T14:04:24.875Z,316
2016-12-06T14:05:24.885Z,304
2016-12-06T14:06:24.896Z,296
2016-12-06T14:07:24.906Z,288
2016-12-06T14:08:24.917Z,280
2016-12-06T14:09:24.931Z,276
2016-12-06T14:10:25.056Z,272
2016-12-06T14:11:24.955Z,272
2016-12-06T14:12:24.963Z,264
2016-12-06T14:13:24.972Z,264
2016-12-06T14:14:25.080Z,268
2016-12-06T14:15:25.012Z,264